Time;durP1;ratioP1;P1;durP2;ratioP2;P2;SDS_P1;SDS_P2;PMS_P1;PMS_P2;Temp;Humidity;BMP_temperature;BMP_pressure;BME280_temperature;BME280_humidity;BME280_pressure;Samples;Min_cycle;Max_cycle;Signal;HPM_P1;HPM_P2
2022/04/08 00:01:20;;;;;;;4.90;1.40;;;;;;;7.09;71.46;97884.97;5079770;28;20480;-71
2022/04/08 00:03:47;;;;;;;5.37;1.70;;;;;;;6.93;71.45;97906.31;5080086;28;20934;-72
2022/04/08 00:06:14;;;;;;;8.13;2.53;;;;;;;6.92;72.14;97896.69;5079218;28;20484;-72
2022/04/08 00:08:41;;;;;;;5.00;1.57;;;;;;;6.98;72.27;97898.66;5074168;28;20503;-71
2022/04/08 00:11:08;;;;;;;6.30;1.70;;;;;;;7.01;71.95;97902.78;5085637;28;20491;-72
2022/04/08 00:13:35;;;;;;;4.60;1.40;;;;;;;6.98;72.45;97909.28;5086604;28;20947;-70
2022/04/08 00:16:04;;;;;;;7.10;2.10;;;;;;;7.01;72.13;97922.19;5086412;28;20475;-71
2022/04/08 00:18:30;;;;;;;4.23;1.63;;;;;;;6.74;74.28;97921.69;5086435;28;20474;-72
2022/04/08 00:20:57;;;;;;;6.70;2.50;;;;;;;6.68;76.02;97927.69;5085628;28;20471;-72
2022/04/08 00:23:24;;;;;;;4.80;1.40;;;;;;;6.59;76.43;97926.88;5086419;28;20440;-73
2022/04/08 00:25:51;;;;;;;8.30;2.90;;;;;;;6.53;77.11;97935.56;5086126;28;20463;-72
2022/04/08 00:28:18;;;;;;;9.33;2.20;;;;;;;6.65;77.77;97940.47;5074981;28;20488;-72
2022/04/08 00:30:44;;;;;;;5.20;2.00;;;;;;;6.64;77.62;97952.09;5086385;28;20498;-73
2022/04/08 00:33:13;;;;;;;6.93;2.13;;;;;;;6.59;77.08;97945.47;5086302;28;20448;-74
2022/04/08 00:35:40;;;;;;;6.93;2.27;;;;;;;6.54;75.93;97952.31;5070773;28;20468;-73
2022/04/08 00:38:07;;;;;;;9.97;2.23;;;;;;;6.71;75.89;97961.84;5083850;28;20489;-72
2022/04/08 00:40:34;;;;;;;6.83;1.87;;;;;;;6.61;76.57;97971.84;5086420;28;20501;-72
2022/04/08 00:43:11;;;;;;;8.83;1.63;;;;;;;6.58;77.16;97977.53;5085351;28;20467;-73
2022/04/08 00:45:37;;;;;;;13.03;2.77;;;;;;;6.50;78.14;97974.88;5045652;28;20925;-73
2022/04/08 00:48:07;;;;;;;3.70;1.80;;;;;;;6.47;79.12;97970.72;5076654;28;20518;-73
2022/04/08 00:50:36;;;;;;;5.30;1.77;;;;;;;6.45;79.00;97987.84;5073301;28;20464;-72
2022/04/08 00:53:02;;;;;;;7.07;2.63;;;;;;;6.44;79.38;97992.34;5080507;28;20435;-71
2022/04/08 00:55:29;;;;;;;5.13;1.67;;;;;;;6.35;79.74;97983.56;5085795;28;20469;-72
2022/04/08 00:57:56;;;;;;;8.33;2.80;;;;;;;6.31;80.27;97995.50;5085724;28;20451;-72
2022/04/08 01:00:24;;;;;;;6.00;2.40;;;;;;;6.45;79.94;97998.47;5085655;28;20455;-72
2022/04/08 01:02:50;;;;;;;5.93;2.10;;;;;;;6.43;79.10;97992.50;5086207;28;20444;-72
2022/04/08 01:05:17;;;;;;;5.47;3.13;;;;;;;6.48;78.92;98014.06;5085726;28;20447;-73
2022/04/08 01:07:45;;;;;;;5.00;2.47;;;;;;;6.46;78.82;98005.41;5084236;28;20463;-73
2022/04/08 01:10:12;;;;;;;5.17;2.00;;;;;;;6.32;79.46;98018.41;5084694;28;20456;-73
2022/04/08 01:12:39;;;;;;;2.40;1.80;;;;;;;6.51;79.90;98019.00;5085966;28;20456;-73
2022/04/08 01:15:07;;;;;;;7.90;2.30;;;;;;;6.25;80.61;98011.25;5086885;28;20735;-72
2022/04/08 01:17:33;;;;;;;5.77;1.87;;;;;;;6.36;80.84;98027.66;5085221;28;20464;-74
2022/04/08 01:20:00;;;;;;;7.73;2.10;;;;;;;6.27;81.25;98038.44;5081940;28;20455;-73
2022/04/08 01:22:27;;;;;;;7.27;2.10;;;;;;;6.26;81.88;98042.94;5082247;28;20476;-74
2022/04/08 01:25:00;;;;;;;6.80;2.80;;;;;;;6.26;82.70;98050.06;5082336;28;20522;-74
2022/04/08 01:27:26;;;;;;;5.33;1.90;;;;;;;6.17;83.08;98063.34;5081586;28;20539;-74
2022/04/08 01:29:53;;;;;;;5.37;2.03;;;;;;;6.16;83.43;98074.13;5073706;28;20486;-72
2022/04/08 01:32:20;;;;;;;7.20;2.50;;;;;;;5.95;84.66;98064.78;5082332;28;21061;-72
2022/04/08 01:34:49;;;;;;;7.20;1.67;;;;;;;5.87;83.25;98086.03;5082477;28;20448;-73
2022/04/08 01:37:15;;;;;;;3.27;1.33;;;;;;;5.79;82.62;98099.25;5073158;28;20506;-74
2022/04/08 01:39:42;;;;;;;5.37;1.80;;;;;;;5.72;82.72;98106.22;5080028;28;20452;-74
2022/04/08 01:42:11;;;;;;;2.83;1.40;;;;;;;5.82;83.08;98105.06;5081632;28;20506;-73
2022/04/08 01:44:38;;;;;;;4.90;1.43;;;;;;;5.61;82.42;98120.59;5082313;28;20483;-73
2022/04/08 01:47:05;;;;;;;1.70;1.10;;;;;;;5.65;82.22;98119.28;5082421;28;20510;-72
2022/04/08 01:49:32;;;;;;;6.00;1.20;;;;;;;5.60;82.59;98138.31;5083095;28;20518;-73
2022/04/08 01:51:59;;;;;;;1.43;1.33;;;;;;;5.58;82.06;98126.22;5084249;28;20475;-73
2022/04/08 01:54:26;;;;;;;4.00;1.53;;;;;;;5.72;82.23;98133.53;5072079;28;20448;-73
2022/04/08 01:56:52;;;;;;;3.00;1.13;;;;;;;5.66;82.86;98153.59;5082126;28;20472;-72
2022/04/08 01:59:20;;;;;;;3.80;1.70;;;;;;;5.50;83.53;98145.56;5081864;28;20440;-73
2022/04/08 02:01:47;;;;;;;1.37;1.23;;;;;;;5.33;84.59;98135.88;5078442;28;20484;-72
2022/04/08 02:04:14;;;;;;;3.53;1.60;;;;;;;5.37;85.21;98143.38;5080856;28;20805;-71
2022/04/08 02:06:42;;;;;;;3.13;1.30;;;;;;;5.46;84.99;98157.47;5081346;28;20507;-71
2022/04/08 02:09:09;;;;;;;1.63;1.33;;;;;;;5.59;84.82;98149.06;5081924;28;20500;-72
2022/04/08 02:11:37;;;;;;;2.67;1.57;;;;;;;5.59;84.45;98152.56;5081180;28;20468;-72
2022/04/08 02:14:04;;;;;;;4.97;1.50;;;;;;;5.42;84.54;98172.03;5081930;28;20436;-73
2022/04/08 02:16:32;;;;;;;2.27;1.97;;;;;;;5.59;84.80;98178.22;5081009;28;21444;-72
2022/04/08 02:18:59;;;;;;;4.67;2.37;;;;;;;5.52;84.80;98188.66;5081500;28;20431;-71
2022/04/08 02:21:25;;;;;;;3.37;1.50;;;;;;;5.43;84.40;98187.78;5062903;28;20465;-72
2022/04/08 02:23:53;;;;;;;1.53;1.40;;;;;;;5.47;84.35;98196.25;5062139;28;20437;-72
2022/04/08 02:26:20;;;;;;;2.43;1.37;;;;;;;5.50;84.74;98201.22;5077631;28;20460;-71
2022/04/08 02:28:47;;;;;;;3.67;1.40;;;;;;;5.51;84.59;98199.41;5081623;28;20993;-73
2022/04/08 02:31:14;;;;;;;2.23;1.60;;;;;;;5.40;84.52;98219.06;5080452;28;20464;-70
2022/04/08 02:33:42;;;;;;;1.80;1.53;;;;;;;5.36;84.46;98223.00;5081054;28;20935;-72
2022/04/08 02:36:09;;;;;;;1.57;1.17;;;;;;;5.34;84.34;98215.22;5081404;28;20468;-73
2022/04/08 02:38:36;;;;;;;1.63;1.20;;;;;;;5.37;84.17;98230.00;5081111;28;20448;-73
2022/04/08 02:41:03;;;;;;;1.83;1.17;;;;;;;5.31;84.25;98231.44;5080752;28;20498;-71
2022/04/08 02:43:29;;;;;;;2.67;1.13;;;;;;;5.44;84.18;98239.78;5079584;28;20864;-72
2022/04/08 02:45:56;;;;;;;1.33;1.23;;;;;;;5.23;84.46;98236.69;5080474;28;20506;-73
2022/04/08 02:48:23;;;;;;;1.57;1.10;;;;;;;5.24;84.47;98244.50;5078800;28;20453;-73
2022/04/08 02:50:51;;;;;;;3.30;1.33;;;;;;;5.26;84.95;98247.00;5068619;28;20465;-71
2022/04/08 02:53:17;;;;;;;3.33;1.03;;;;;;;5.17;85.74;98247.91;5069339;28;20475;-72
2022/04/08 02:55:44;;;;;;;1.03;1.00;;;;;;;5.06;86.29;98241.88;5080755;28;20475;-71
2022/04/08 02:58:11;;;;;;;2.30;1.20;;;;;;;4.96;86.29;98254.38;5073151;28;20486;-71
2022/04/08 03:00:40;;;;;;;2.30;1.00;;;;;;;5.07;86.04;98261.25;5079845;28;20467;-71
2022/04/08 03:03:07;;;;;;;0.80;0.80;;;;;;;4.93;86.09;98261.78;5081026;28;20447;-71
2022/04/08 03:05:33;;;;;;;1.73;1.10;;;;;;;5.02;85.88;98271.50;5080435;28;20494;-72
2022/04/08 03:08:02;;;;;;;3.40;1.60;;;;;;;4.95;85.26;98276.56;5080244;28;20456;-73
2022/04/08 03:10:29;;;;;;;1.67;1.10;;;;;;;5.06;84.94;98284.25;5080255;28;20498;-70
2022/04/08 03:12:55;;;;;;;1.73;1.17;;;;;;;4.97;85.13;98293.13;5079838;28;20816;-73
2022/04/08 03:15:22;;;;;;;0.90;0.90;;;;;;;5.08;84.65;98294.69;5080274;28;20436;-70
2022/04/08 03:17:52;;;;;;;2.13;1.10;;;;;;;5.10;84.90;98290.06;5078473;28;20451;-70
2022/04/08 03:20:19;;;;;;;1.10;1.00;;;;;;;5.16;84.35;98304.53;5059798;28;20445;-71
2022/04/08 03:22:45;;;;;;;1.30;0.83;;;;;;;5.17;84.10;98287.63;5080381;28;20436;-71
2022/04/08 03:25:14;;;;;;;0.80;0.80;;;;;;;5.23;83.36;98294.97;5079720;28;20473;-72
2022/04/08 03:27:40;;;;;;;1.10;0.93;;;;;;;4.98;83.62;98304.53;5079311;28;20519;-72
2022/04/08 03:30:09;;;;;;;3.13;1.57;;;;;;;5.09;83.72;98299.00;5079903;28;20475;-72
2022/04/08 03:32:35;;;;;;;2.40;1.00;;;;;;;5.20;83.96;98314.66;5080501;28;20455;-73
2022/04/08 03:35:02;;;;;;;1.93;0.97;;;;;;;5.02;83.17;98319.97;5081350;28;20454;-71
2022/04/08 03:37:30;;;;;;;1.00;0.90;;;;;;;5.03;82.90;98311.03;5079756;28;21025;-72
2022/04/08 03:39:57;;;;;;;1.67;1.30;;;;;;;5.02;82.32;98309.38;5080333;28;20475;-71
2022/04/08 03:42:26;;;;;;;1.50;1.07;;;;;;;4.93;82.00;98314.75;5078295;28;20543;-72
2022/04/08 03:44:54;;;;;;;2.27;1.13;;;;;;;4.98;81.78;98320.44;5080238;28;20812;-72
2022/04/08 03:47:21;;;;;;;2.50;1.27;;;;;;;5.02;80.52;98327.94;5066689;28;20995;-71
2022/04/08 03:49:48;;;;;;;1.27;0.90;;;;;;;4.95;80.96;98339.25;5079023;28;20486;-72
2022/04/08 03:52:15;;;;;;;1.20;1.10;;;;;;;4.87;80.48;98340.03;5079624;28;20555;-72
2022/04/08 03:54:42;;;;;;;2.00;1.13;;;;;;;4.78;80.20;98348.88;5075695;28;20828;-72
2022/04/08 03:57:09;;;;;;;1.43;0.80;;;;;;;4.88;79.31;98350.47;5058959;28;20495;-71
2022/04/08 03:59:37;;;;;;;1.20;1.10;;;;;;;4.80;79.13;98347.75;5059896;28;20433;-72
2022/04/08 04:02:05;;;;;;;2.10;1.00;;;;;;;4.81;78.86;98375.03;5073300;28;20476;-72
2022/04/08 04:04:32;;;;;;;2.00;1.10;;;;;;;4.77;78.58;98376.34;5079917;28;20531;-73
2022/04/08 04:06:59;;;;;;;5.50;1.50;;;;;;;4.89;77.75;98383.06;5079481;28;20517;-71
2022/04/08 04:09:26;;;;;;;2.33;1.30;;;;;;;4.70;78.38;98378.75;5080096;28;20487;-71
2022/04/08 04:11:53;;;;;;;7.43;1.40;;;;;;;4.69;79.12;98396.44;5074499;28;20589;-72
2022/04/08 04:14:19;;;;;;;3.37;1.57;;;;;;;4.57;79.76;98394.16;5059246;28;20445;-72
2022/04/08 04:16:47;;;;;;;5.00;1.13;;;;;;;4.52;80.25;98413.94;5054769;28;20477;-73
2022/04/08 04:19:14;;;;;;;3.77;1.17;;;;;;;4.54;81.09;98411.16;5063811;28;20447;-72
2022/04/08 04:21:41;;;;;;;3.77;1.23;;;;;;;4.48;81.38;98420.53;5070014;28;20484;-72
2022/04/08 04:24:08;;;;;;;1.00;0.83;;;;;;;4.42;81.84;98421.09;5076727;28;20453;-72
2022/04/08 04:26:35;;;;;;;3.90;1.90;;;;;;;4.32;82.21;98422.94;5066331;28;20527;-73
2022/04/08 04:29:02;;;;;;;1.60;1.20;;;;;;;4.36;82.29;98432.28;5063854;28;20485;-69
2022/04/08 04:31:28;;;;;;;2.13;1.00;;;;;;;4.50;82.12;98436.25;5057150;28;20480;-69
2022/04/08 04:33:56;;;;;;;5.00;1.57;;;;;;;4.42;82.20;98436.97;5059034;28;21131;-70
2022/04/08 04:36:23;;;;;;;7.07;1.17;;;;;;;4.31;82.53;98443.28;5056873;28;21079;-71
2022/04/08 04:38:50;;;;;;;4.23;2.40;;;;;;;4.43;82.11;98445.78;5060296;28;20460;-70
2022/04/08 04:41:17;;;;;;;2.37;1.10;;;;;;;4.32;82.51;98441.47;5058937;28;20645;-70
2022/04/08 04:43:44;;;;;;;4.30;1.27;;;;;;;4.44;82.17;98445.59;5060520;28;20449;-70
2022/04/08 04:46:11;;;;;;;5.97;2.13;;;;;;;4.47;82.55;98450.59;5058893;28;20488;-70
2022/04/08 04:48:38;;;;;;;7.57;1.83;;;;;;;4.35;82.53;98459.72;5078613;28;20452;-70
2022/04/08 04:51:06;;;;;;;3.43;1.40;;;;;;;4.38;82.91;98448.00;5074275;28;20490;-70
2022/04/08 04:53:32;;;;;;;4.30;1.73;;;;;;;4.39;82.84;98455.78;5079724;28;20428;-69
2022/04/08 04:55:59;;;;;;;2.30;1.70;;;;;;;4.59;82.54;98461.84;5073538;28;21080;-70
2022/04/08 04:58:26;;;;;;;5.63;1.40;;;;;;;4.65;82.44;98471.00;5082846;28;20452;-70
2022/04/08 05:00:53;;;;;;;4.93;2.23;;;;;;;4.69;81.96;98465.28;5080156;28;20472;-71
2022/04/08 05:03:20;;;;;;;11.43;1.90;;;;;;;4.64;81.73;98470.16;5082926;28;20471;-70
2022/04/08 05:05:47;;;;;;;4.63;1.90;;;;;;;4.67;81.53;98466.38;5081869;28;20467;-69
2022/04/08 05:08:16;;;;;;;6.17;2.07;;;;;;;4.66;81.57;98468.22;5081040;28;20521;-68
2022/04/08 05:10:42;;;;;;;4.60;1.60;;;;;;;4.72;80.89;98472.06;5082732;28;20479;-69
2022/04/08 05:13:09;;;;;;;6.50;1.70;;;;;;;4.72;80.79;98478.22;5081706;28;20497;-70
2022/04/08 05:15:38;;;;;;;2.63;1.83;;;;;;;4.61;80.55;98475.75;5082217;28;20471;-69
2022/04/08 05:18:05;;;;;;;6.23;2.00;;;;;;;4.94;80.35;98481.44;5061229;28;20471;-68
2022/04/08 05:20:32;;;;;;;6.60;1.80;;;;;;;5.16;79.02;98468.78;5066832;28;20525;-67
2022/04/08 05:22:59;;;;;;;6.23;2.33;;;;;;;5.22;78.29;98478.75;5082932;28;20463;-70
2022/04/08 05:25:27;;;;;;;11.97;2.50;;;;;;;5.36;77.02;98482.69;5081557;28;20452;-69
2022/04/08 05:27:54;;;;;;;7.27;2.20;;;;;;;5.45;76.95;98495.03;5081186;28;20452;-69
2022/04/08 05:30:21;;;;;;;6.70;1.87;;;;;;;5.08;77.80;98496.00;5081298;28;20932;-69
2022/04/08 05:32:48;;;;;;;5.93;2.10;;;;;;;5.13;77.70;98493.72;5082293;28;20456;-70
2022/04/08 05:35:15;;;;;;;33.03;3.83;;;;;;;5.03;77.71;98500.91;5079898;28;20447;-68
2022/04/08 05:37:43;;;;;;;6.80;2.80;;;;;;;4.99;77.60;98504.84;5081815;28;20458;-69
2022/04/08 05:40:11;;;;;;;8.70;2.23;;;;;;;5.09;77.28;98506.44;5081821;28;20467;-69
2022/04/08 05:42:40;;;;;;;10.40;2.50;;;;;;;5.04;77.19;98497.28;5068030;28;20449;-69
2022/04/08 05:45:08;;;;;;;11.20;3.00;;;;;;;5.02;77.24;98509.84;5059986;28;20514;-68
2022/04/08 05:47:39;;;;;;;5.00;2.17;;;;;;;5.43;76.34;98505.81;5061878;28;20460;-69
2022/04/08 05:50:06;;;;;;;7.60;1.93;;;;;;;5.75;74.94;98515.03;5061307;28;20554;-70
2022/04/08 05:52:33;;;;;;;7.53;2.20;;;;;;;6.22;72.33;98506.81;5059786;28;20473;-69
2022/04/08 05:55:00;;;;;;;7.73;2.10;;;;;;;5.93;71.90;98508.88;5067242;28;20482;-69
2022/04/08 05:57:27;;;;;;;4.83;2.10;;;;;;;6.34;71.74;98507.38;5071779;28;20475;-68
2022/04/08 06:00:00;;;;;;;9.93;2.10;;;;;;;6.14;71.45;98511.22;5060329;28;20862;-69
2022/04/08 06:02:27;;;;;;;12.43;2.17;;;;;;;5.99;71.52;98514.44;5060161;28;20477;-69
2022/04/08 06:04:53;;;;;;;14.23;2.23;;;;;;;6.35;70.93;98516.16;5060045;28;20453;-69
2022/04/08 06:07:23;;;;;;;8.17;2.53;;;;;;;7.45;67.64;98516.31;5068106;28;20503;-68
2022/04/08 06:09:50;;;;;;;8.63;2.20;;;;;;;7.47;66.57;98520.47;5071230;28;20499;-69
2022/04/08 06:12:17;;;;;;;12.70;3.33;;;;;;;7.82;64.26;98513.19;5059737;28;20508;-69
2022/04/08 06:14:44;;;;;;;7.63;2.00;;;;;;;8.07;64.20;98522.00;5061093;28;20452;-70
2022/04/08 06:17:12;;;;;;;6.57;2.30;;;;;;;8.14;64.25;98519.47;5060475;28;20480;-69
2022/04/08 06:19:39;;;;;;;6.60;2.20;;;;;;;8.21;63.51;98517.84;5066822;28;20443;-70
2022/04/08 06:22:06;;;;;;;10.13;2.80;;;;;;;8.16;62.84;98508.66;5080539;28;20554;-69
2022/04/08 06:24:33;;;;;;;7.70;2.30;;;;;;;7.75;64.68;98520.16;5081440;28;20438;-69
2022/04/08 06:26:59;;;;;;;7.50;2.13;;;;;;;7.10;66.49;98518.19;5069833;28;20469;-70
2022/04/08 06:29:26;;;;;;;13.90;3.17;;;;;;;7.10;66.74;98521.69;5059994;28;20507;-70
2022/04/08 06:31:53;;;;;;;16.80;3.13;;;;;;;6.58;68.23;98533.25;5057225;28;20562;-70
2022/04/08 06:34:21;;;;;;;7.90;2.40;;;;;;;6.35;69.20;98535.59;5058891;28;20453;-69
2022/04/08 06:36:48;;;;;;;17.43;2.40;;;;;;;6.64;68.63;98538.91;5059536;28;20526;-70
2022/04/08 06:39:14;;;;;;;7.03;2.30;;;;;;;6.72;68.60;98538.97;5060708;28;20925;-69
2022/04/08 06:41:41;;;;;;;8.20;2.27;;;;;;;6.89;67.68;98535.41;5059413;28;20476;-70
2022/04/08 06:44:08;;;;;;;8.27;2.93;;;;;;;7.14;67.04;98533.66;5066307;28;20511;-70
2022/04/08 06:46:35;;;;;;;11.43;2.73;;;;;;;7.70;65.24;98535.78;5071269;28;20543;-70
2022/04/08 06:49:02;;;;;;;11.70;3.20;;;;;;;8.10;62.63;98537.63;5059035;28;20499;-69
2022/04/08 06:51:31;;;;;;;6.00;2.60;;;;;;;8.01;63.59;98540.47;5059431;28;20511;-71
2022/04/08 06:53:58;;;;;;;7.13;2.10;;;;;;;8.64;61.32;98528.25;5059989;28;20775;-70
2022/04/08 06:56:24;;;;;;;8.97;2.30;;;;;;;10.36;56.33;98524.59;5061327;28;20538;-69
2022/04/08 06:58:51;;;;;;;6.60;2.03;;;;;;;10.45;54.12;98524.50;5040108;28;20473;-70
2022/04/08 07:01:18;;;;;;;5.93;2.47;;;;;;;12.16;51.23;98530.47;5039679;28;20476;-71
2022/04/08 07:03:45;;;;;;;10.67;2.53;;;;;;;12.30;50.64;98529.53;5039376;28;20580;-70
2022/04/08 07:06:11;;;;;;;8.90;3.07;;;;;;;12.18;49.75;98534.59;5051717;28;20472;-70
2022/04/08 07:08:40;;;;;;;6.20;2.20;;;;;;;12.08;49.50;98527.91;5063535;28;20454;-71
2022/04/08 07:11:06;;;;;;;7.63;2.23;;;;;;;12.17;50.08;98526.75;5038956;28;20473;-70
2022/04/08 07:13:33;;;;;;;7.03;1.83;;;;;;;11.79;50.53;98519.81;5039243;28;20483;-70
2022/04/08 07:16:00;;;;;;;6.23;1.87;;;;;;;12.56;48.04;98518.19;5038512;28;20535;-71
2022/04/08 07:18:27;;;;;;;10.80;2.13;;;;;;;12.61;48.69;98526.47;5057500;28;20452;-70
2022/04/08 07:20:54;;;;;;;9.00;3.00;;;;;;;10.23;52.88;98516.34;5053824;28;21004;-69
2022/04/08 07:23:21;;;;;;;10.57;2.43;;;;;;;10.04;54.47;98522.19;5039634;28;20429;-70
2022/04/08 07:25:49;;;;;;;9.83;2.63;;;;;;;10.10;54.61;98530.31;5038747;28;20477;-68
2022/04/08 07:28:15;;;;;;;7.00;2.40;;;;;;;10.36;54.99;98529.94;5042204;28;20467;-70
2022/04/08 07:30:42;;;;;;;5.13;2.30;;;;;;;10.51;54.53;98524.59;5055801;28;20485;-71
2022/04/08 07:33:09;;;;;;;6.77;2.20;;;;;;;9.01;57.38;98521.50;5043810;28;20470;-70
2022/04/08 07:35:37;;;;;;;13.57;2.73;;;;;;;8.72;59.60;98530.91;5079023;28;20481;-70
2022/04/08 07:38:05;;;;;;;9.70;2.37;;;;;;;8.71;59.18;98525.75;5071353;28;20487;-71
2022/04/08 07:40:32;;;;;;;10.90;2.57;;;;;;;8.82;59.13;98530.72;5058192;28;20932;-71
2022/04/08 07:43:00;;;;;;;8.73;2.70;;;;;;;9.08;58.06;98534.94;5059116;28;20457;-70
2022/04/08 07:45:29;;;;;;;7.70;2.50;;;;;;;9.75;57.19;98534.41;5047292;28;20474;-71
2022/04/08 07:47:58;;;;;;;7.33;2.40;;;;;;;9.68;55.30;98520.09;5038604;28;20588;-70
2022/04/08 07:50:26;;;;;;;8.73;2.60;;;;;;;10.43;54.17;98519.31;5053737;28;20680;-69
2022/04/08 07:52:52;;;;;;;6.43;2.30;;;;;;;9.47;56.83;98521.56;5058711;28;20433;-69
2022/04/08 07:55:20;;;;;;;8.30;3.23;;;;;;;9.66;56.21;98522.94;5052993;28;20452;-70
2022/04/08 07:57:47;;;;;;;8.43;2.60;;;;;;;9.76;55.52;98531.56;5063246;28;20455;-69
2022/04/08 08:00:19;;;;;;;11.90;2.30;;;;;;;8.56;57.90;98531.78;5038563;28;20454;-70
2022/04/08 08:02:47;;;;;;;6.67;3.00;;;;;;;8.43;58.54;98524.31;5038152;28;20483;-70
2022/04/08 08:05:14;;;;;;;6.90;3.13;;;;;;;8.41;58.82;98520.13;5038481;28;20748;-70
2022/04/08 08:07:48;;;;;;;5.97;2.37;;;;;;;9.11;55.66;98526.59;5043220;28;20445;-70
2022/04/08 08:10:16;;;;;;;7.30;3.00;;;;;;;10.85;51.85;98527.72;5050558;28;20496;-71
2022/04/08 08:12:43;;;;;;;8.23;2.53;;;;;;;10.13;52.53;98529.94;5078111;28;20450;-70
2022/04/08 08:15:10;;;;;;;7.50;2.93;;;;;;;9.36;55.33;98532.66;5071390;28;20536;-71
2022/04/08 08:17:39;;;;;;;3.30;1.73;;;;;;;9.23;54.47;98538.53;5057894;28;20449;-71
2022/04/08 08:20:06;;;;;;;9.20;2.90;;;;;;;11.03;50.73;98536.22;5058298;28;20623;-71
2022/04/08 08:22:33;;;;;;;6.27;2.20;;;;;;;11.65;49.74;98539.44;5062773;28;20473;-71
2022/04/08 08:25:00;;;;;;;6.03;2.47;;;;;;;11.32;49.62;98529.19;5055874;28;20439;-70
2022/04/08 08:27:27;;;;;;;5.57;2.77;;;;;;;10.53;51.67;98540.44;5057783;28;20468;-71
2022/04/08 08:29:53;;;;;;;3.67;2.90;;;;;;;12.30;47.27;98528.72;5061479;28;20445;-70
2022/04/08 08:32:21;;;;;;;7.70;2.67;;;;;;;11.29;47.29;98525.03;5061718;28;20516;-69
2022/04/08 08:34:49;;;;;;;8.57;3.13;;;;;;;11.37;48.46;98523.25;5059180;28;20451;-72
2022/04/08 08:37:16;;;;;;;9.13;2.83;;;;;;;12.00;48.32;98523.53;5044823;28;20473;-71
2022/04/08 08:39:43;;;;;;;6.53;3.27;;;;;;;12.81;45.50;98515.88;5061844;28;20449;-71
2022/04/08 08:42:10;;;;;;;4.20;1.90;;;;;;;11.90;45.39;98517.63;5061166;28;20507;-70
2022/04/08 08:44:37;;;;;;;8.13;2.00;;;;;;;12.29;46.36;98519.00;5055257;28;20545;-71
2022/04/08 08:47:07;;;;;;;6.93;1.80;;;;;;;12.92;44.44;98513.66;5042137;28;20477;-71
2022/04/08 08:49:34;;;;;;;4.23;2.23;;;;;;;13.04;42.82;98506.72;5061910;28;20441;-71
2022/04/08 08:52:06;;;;;;;2.67;1.40;;;;;;;12.14;43.67;98511.09;5040581;28;20518;-71
2022/04/08 08:54:34;;;;;;;5.07;1.53;;;;;;;12.38;43.64;98507.16;5042120;28;20446;-70
2022/04/08 08:57:02;;;;;;;7.00;2.17;;;;;;;12.13;44.30;98504.88;5041817;28;20491;-69
2022/04/08 08:59:29;;;;;;;5.33;2.00;;;;;;;11.48;46.09;98512.88;5044919;28;20460;-71
2022/04/08 09:02:00;;;;;;;5.67;1.97;;;;;;;11.49;45.90;98506.53;5041442;28;20540;-72
2022/04/08 09:04:27;;;;;;;3.20;2.07;;;;;;;11.37;46.91;98513.41;5042183;28;20494;-71
2022/04/08 09:06:54;;;;;;;8.50;2.00;;;;;;;13.03;41.33;98507.72;5042052;28;20481;-71
2022/04/08 09:09:30;;;;;;;5.60;2.33;;;;;;;13.25;42.22;98507.63;5041187;28;20464;-71
2022/04/08 09:11:57;;;;;;;7.07;1.90;;;;;;;12.79;42.76;98515.25;5043033;28;20512;-71
2022/04/08 09:14:28;;;;;;;5.87;2.03;;;;;;;12.67;42.73;98498.03;5042304;28;20462;-71
2022/04/08 09:17:00;;;;;;;6.77;2.27;;;;;;;12.60;43.88;98502.53;5040467;28;20501;-71
2022/04/08 09:19:27;;;;;;;5.00;2.20;;;;;;;12.23;42.89;98500.00;5041760;28;20557;-70
2022/04/08 09:21:54;;;;;;;7.10;1.80;;;;;;;12.45;44.39;98502.66;5040614;28;20481;-70
2022/04/08 09:24:22;;;;;;;9.73;1.97;;;;;;;12.71;42.00;98501.19;5041227;28;20473;-72
2022/04/08 09:26:53;;;;;;;7.13;2.07;;;;;;;12.53;42.49;98497.13;5041328;28;20473;-71
2022/04/08 09:29:20;;;;;;;6.23;2.83;;;;;;;12.13;43.25;98498.69;5041389;28;20457;-69
2022/04/08 09:31:49;;;;;;;7.13;2.17;;;;;;;11.54;43.48;98503.25;5040333;28;20482;-70
2022/04/08 09:34:17;;;;;;;3.77;1.97;;;;;;;11.29;44.51;98500.13;5042089;28;20483;-70
2022/04/08 09:36:44;;;;;;;6.00;2.17;;;;;;;11.65;42.36;98501.97;5040236;28;20516;-71
2022/04/08 09:39:11;;;;;;;5.20;2.23;;;;;;;10.81;43.68;98489.03;5041238;28;20446;-71
2022/04/08 09:41:39;;;;;;;4.57;2.00;;;;;;;11.43;43.89;98490.41;5040522;28;20731;-70
2022/04/08 09:44:08;;;;;;;5.47;1.70;;;;;;;11.83;42.21;98480.09;5043617;28;20497;-71
2022/04/08 09:46:36;;;;;;;5.50;1.30;;;;;;;12.08;42.55;98458.28;5060603;28;20639;-70
2022/04/08 09:49:04;;;;;;;4.97;1.60;;;;;;;11.13;42.49;98466.41;5064689;28;20761;-70
2022/04/08 09:51:34;;;;;;;4.30;1.40;;;;;;;11.01;42.61;98460.72;5040225;28;20477;-70
2022/04/08 09:54:02;;;;;;;6.93;1.73;;;;;;;11.64;42.41;98457.47;5040927;28;20437;-71
2022/04/08 09:56:29;;;;;;;8.50;2.70;;;;;;;10.95;43.75;98463.28;5044368;28;20515;-70
2022/04/08 09:58:58;;;;;;;3.50;2.07;;;;;;;11.44;43.55;98458.09;5061101;28;21002;-71
2022/04/08 10:01:28;;;;;;;3.83;1.77;;;;;;;11.48;41.88;98450.53;5070986;28;20475;-70
2022/04/08 10:03:55;;;;;;;4.43;2.80;;;;;;;10.41;44.72;98459.09;5081038;28;20439;-71
2022/04/08 10:06:23;;;;;;;6.87;2.10;;;;;;;10.85;44.53;98451.06;5070234;28;21018;-71
2022/04/08 10:08:50;;;;;;;4.57;2.00;;;;;;;10.87;45.09;98459.72;5060567;28;20445;-71
2022/04/08 10:11:22;;;;;;;5.90;1.87;;;;;;;11.10;43.66;98448.88;5060495;28;20485;-71
2022/04/08 10:13:59;;;;;;;3.83;1.43;;;;;;;10.42;43.72;98442.88;5054791;28;20457;-70
2022/04/08 10:16:28;;;;;;;12.67;2.00;;;;;;;10.77;44.38;98455.69;5039724;28;20476;-71
2022/04/08 10:18:56;;;;;;;3.53;1.27;;;;;;;10.99;40.90;98440.50;5060142;28;20481;-71
2022/04/08 10:21:22;;;;;;;3.73;1.43;;;;;;;10.55;43.07;98447.56;5059628;28;20794;-71
2022/04/08 10:23:50;;;;;;;4.20;1.93;;;;;;;10.73;43.51;98441.88;5040149;28;20476;-72
2022/04/08 10:26:19;;;;;;;7.20;2.07;;;;;;;10.19;44.25;98445.59;5064925;28;20460;-71
2022/04/08 10:28:46;;;;;;;4.33;1.80;;;;;;;10.06;45.61;98453.41;5069727;28;20709;-71
2022/04/08 10:31:17;;;;;;;6.50;1.80;;;;;;;10.77;43.91;98451.16;5058296;28;20530;-70
2022/04/08 10:33:50;;;;;;;5.33;1.70;;;;;;;11.00;44.63;98448.34;5059518;28;20437;-70
2022/04/08 10:36:18;;;;;;;3.70;1.70;;;;;;;10.30;45.30;98444.31;5058689;28;21026;-71
2022/04/08 10:38:44;;;;;;;3.40;1.70;;;;;;;10.53;44.43;98437.06;5055475;28;21053;-71
2022/04/08 10:41:11;;;;;;;4.17;1.80;;;;;;;10.24;43.87;98424.53;5060420;28;20473;-70
2022/04/08 10:43:45;;;;;;;5.10;1.90;;;;;;;10.73;44.14;98432.00;5058894;28;20989;-71
2022/04/08 10:46:12;;;;;;;5.50;1.63;;;;;;;11.00;43.42;98426.13;5077978;28;20475;-69
2022/04/08 10:48:39;;;;;;;4.33;1.90;;;;;;;11.10;44.04;98419.47;5078803;28;20966;-71
2022/04/08 10:51:10;;;;;;;6.40;1.90;;;;;;;11.40;43.10;98427.38;5068366;28;20514;-71
2022/04/08 10:53:41;;;;;;;3.80;1.47;;;;;;;10.53;43.54;98417.53;5078611;28;20424;-71
2022/04/08 10:56:10;;;;;;;4.63;1.60;;;;;;;11.34;42.70;98412.09;5078835;28;20468;-70
2022/04/08 10:58:41;;;;;;;9.17;2.50;;;;;;;11.68;41.50;98418.56;5079644;28;20837;-72
2022/04/08 11:01:15;;;;;;;5.00;1.67;;;;;;;11.63;41.19;98411.13;5078562;28;20496;-70
2022/04/08 11:03:45;;;;;;;5.03;1.77;;;;;;;11.19;39.92;98420.16;5080645;28;20461;-71
2022/04/08 11:06:15;;;;;;;2.23;1.17;;;;;;;10.70;40.42;98416.31;5071379;28;20524;-71
2022/04/08 11:08:43;;;;;;;2.77;1.60;;;;;;;10.51;42.75;98408.88;5059784;28;20449;-71
2022/04/08 11:11:10;;;;;;;3.57;1.50;;;;;;;10.88;42.64;98415.09;5059260;28;20526;-71
2022/04/08 11:13:37;;;;;;;2.50;1.50;;;;;;;10.82;40.77;98410.50;5059891;28;20465;-69
2022/04/08 11:16:04;;;;;;;3.63;1.57;;;;;;;10.05;42.14;98409.88;5058871;28;20468;-71
2022/04/08 11:18:31;;;;;;;7.53;1.33;;;;;;;10.27;42.75;98402.78;5059963;28;20453;-70
2022/04/08 11:20:58;;;;;;;6.03;1.67;;;;;;;11.11;41.73;98407.75;5058771;28;20465;-71
2022/04/08 11:23:27;;;;;;;5.40;1.73;;;;;;;10.52;42.07;98410.56;5059661;28;20991;-71
2022/04/08 11:25:54;;;;;;;2.93;1.40;;;;;;;10.35;42.59;98402.72;5059500;28;20473;-71
2022/04/08 11:28:22;;;;;;;5.20;1.60;;;;;;;10.83;41.51;98412.16;5058479;28;20452;-71
2022/04/08 11:30:55;;;;;;;6.60;1.80;;;;;;;10.59;42.35;98406.13;5058726;28;20484;-71
2022/04/08 11:33:22;;;;;;;3.03;1.63;;;;;;;10.91;41.28;98402.16;5059855;28;20430;-72
2022/04/08 11:35:55;;;;;;;5.30;2.53;;;;;;;10.39;41.95;98402.34;5058955;28;20471;-71
2022/04/08 11:38:22;;;;;;;7.20;1.80;;;;;;;11.03;40.83;98409.72;5059167;28;20470;-71
2022/04/08 11:40:50;;;;;;;3.80;1.73;;;;;;;10.83;41.10;98404.97;5059138;28;20475;-71